createdAt,value
2023-02-13T00:01:26.873Z,23.00
2023-02-13T00:03:54.374Z,24.13
2023-02-13T00:06:22.047Z,23.17
2023-02-13T00:08:49.510Z,25.07
2023-02-13T00:11:16.977Z,23.00
2023-02-13T00:13:44.424Z,23.80
2023-02-13T00:16:12.021Z,23.77
2023-02-13T00:18:40.093Z,22.63
2023-02-13T00:21:09.747Z,21.93
2023-02-13T00:23:37.738Z,23.40
2023-02-13T00:26:09.493Z,23.50
2023-02-13T00:28:37.272Z,23.33
2023-02-13T00:31:05.756Z,24.73
2023-02-13T00:33:33.280Z,24.50
2023-02-13T00:36:07.838Z,23.60
2023-02-13T00:38:35.900Z,24.37
2023-02-13T00:41:03.393Z,26.23
2023-02-13T00:43:31.212Z,24.00
2023-02-13T00:45:59.040Z,24.03
2023-02-13T00:48:27.415Z,25.20
2023-02-13T00:50:55.167Z,25.63
2023-02-13T00:53:23.620Z,24.43
2023-02-13T00:55:51.126Z,24.60
2023-02-13T00:58:18.892Z,23.77
2023-02-13T01:00:49.758Z,24.53
2023-02-13T01:03:17.802Z,24.07
2023-02-13T01:05:46.758Z,24.00
2023-02-13T01:08:15.625Z,24.00
2023-02-13T01:10:43.413Z,23.60
2023-02-13T01:13:11.358Z,24.50
2023-02-13T01:15:38.826Z,24.23
2023-02-13T01:18:06.372Z,25.43
2023-02-13T01:20:35.175Z,24.17
2023-02-13T01:23:02.752Z,24.17
2023-02-13T01:25:30.167Z,25.10
2023-02-13T01:27:58.676Z,27.10
2023-02-13T01:30:26.170Z,25.63
2023-02-13T01:32:55.964Z,27.43
2023-02-13T01:35:23.436Z,28.13
2023-02-13T01:37:51.304Z,26.67
2023-02-13T01:40:19.004Z,25.37
2023-02-13T01:42:46.592Z,26.40
2023-02-13T01:45:27.746Z,26.57
2023-02-13T01:47:57.978Z,26.30
2023-02-13T01:50:48.395Z,27.60
2023-02-13T01:53:36.067Z,27.20
2023-02-13T01:56:12.479Z,28.27
2023-02-13T01:58:41.922Z,28.50
2023-02-13T02:01:10.153Z,30.80
2023-02-13T02:03:44.271Z,28.57
2023-02-13T02:06:15.651Z,28.87
2023-02-13T02:08:43.223Z,29.50
2023-02-13T02:11:22.225Z,28.73
2023-02-13T02:13:51.345Z,29.07
2023-02-13T02:16:30.007Z,29.07
2023-02-13T02:18:57.608Z,28.47
2023-02-13T02:21:43.790Z,30.97
2023-02-13T02:24:30.004Z,29.13
2023-02-13T02:27:27.072Z,29.53
2023-02-13T02:30:33.382Z,27.90
2023-02-13T02:33:19.501Z,30.97
2023-02-13T02:36:04.742Z,32.27
2023-02-13T02:38:48.442Z,31.63
2023-02-13T02:41:58.680Z,30.07
2023-02-13T02:44:53.761Z,29.90
2023-02-13T02:47:50.574Z,29.30
2023-02-13T02:50:27.476Z,30.30
2023-02-13T02:53:07.131Z,29.07
2023-02-13T02:55:54.663Z,30.70
2023-02-13T02:59:00.943Z,29.00
2023-02-13T03:01:49.589Z,31.57
2023-02-13T03:04:38.665Z,30.50
2023-02-13T03:07:08.364Z,29.87
2023-02-13T03:09:57.191Z,31.90
2023-02-13T03:12:45.266Z,30.37
2023-02-13T03:15:12.745Z,30.87
2023-02-13T03:17:59.050Z,32.17
2023-02-13T03:21:08.177Z,30.53
2023-02-13T03:23:54.453Z,29.70
2023-02-13T03:26:45.594Z,31.03
2023-02-13T03:29:57.898Z,30.90
2023-02-13T03:32:51.786Z,30.87
2023-02-13T03:35:54.137Z,29.60
2023-02-13T03:38:41.761Z,34.77
2023-02-13T03:41:20.820Z,31.47
2023-02-13T03:44:05.479Z,31.17
2023-02-13T03:46:35.381Z,33.17
2023-02-13T03:49:23.320Z,32.60
2023-02-13T03:51:56.872Z,30.90
2023-02-13T03:54:45.825Z,33.13
2023-02-13T03:57:35.105Z,32.70
2023-02-13T04:00:03.295Z,32.23
2023-02-13T04:02:43.345Z,31.30
2023-02-13T04:05:18.331Z,33.30
2023-02-13T04:07:45.816Z,32.37
2023-02-13T04:10:15.204Z,32.43
2023-02-13T04:13:02.898Z,32.83
2023-02-13T04:15:34.437Z,32.10
2023-02-13T04:18:14.599Z,30.30
2023-02-13T04:20:42.092Z,33.90
2023-02-13T04:23:10.382Z,32.53
2023-02-13T04:25:39.331Z,30.37
2023-02-13T04:28:06.894Z,31.37
2023-02-13T04:30:34.476Z,30.47
2023-02-13T04:33:01.950Z,31.43
2023-02-13T04:35:29.446Z,33.30
2023-02-13T04:37:56.865Z,32.97
2023-02-13T04:40:24.326Z,31.40
2023-02-13T04:42:51.730Z,31.87
2023-02-13T04:45:19.256Z,32.30
2023-02-13T04:47:52.924Z,31.17
2023-02-13T04:50:20.712Z,32.13
2023-02-13T04:52:48.312Z,31.83
2023-02-13T04:55:15.833Z,29.57
2023-02-13T04:57:43.235Z,30.87
2023-02-13T05:00:11.351Z,31.40
2023-02-13T05:02:39.659Z,31.87
2023-02-13T05:05:07.279Z,30.33
2023-02-13T05:07:34.730Z,31.20
2023-02-13T05:10:02.177Z,30.63
2023-02-13T05:12:29.594Z,31.30
2023-02-13T05:14:57.039Z,32.13
2023-02-13T05:17:26.719Z,33.33
2023-02-13T05:19:55.633Z,32.40
2023-02-13T05:22:41.914Z,33.30
2023-02-13T05:25:09.419Z,34.10
2023-02-13T05:27:36.842Z,34.90
2023-02-13T05:30:04.494Z,34.00
2023-02-13T05:32:31.891Z,33.97
2023-02-13T05:34:59.342Z,33.80
2023-02-13T05:37:26.871Z,35.87
2023-02-13T05:39:54.324Z,35.20
2023-02-13T05:42:21.760Z,33.73
2023-02-13T05:44:49.232Z,33.13
2023-02-13T05:47:16.699Z,32.67
2023-02-13T05:49:44.142Z,33.70
2023-02-13T05:52:11.620Z,32.83
2023-02-13T05:54:39.565Z,33.10
2023-02-13T05:57:07.034Z,33.50
2023-02-13T05:59:34.586Z,33.47
2023-02-13T06:02:02.069Z,34.83
2023-02-13T06:04:29.529Z,33.07
2023-02-13T06:06:57.163Z,36.20
2023-02-13T06:09:24.700Z,34.57
2023-02-13T06:11:52.253Z,33.67
2023-02-13T06:14:19.804Z,34.47
2023-02-13T06:16:47.308Z,34.10
2023-02-13T06:19:14.813Z,32.50
2023-02-13T06:21:42.247Z,35.33
2023-02-13T06:24:09.730Z,32.77
2023-02-13T06:26:37.197Z,34.90
2023-02-13T06:29:06.685Z,31.43
2023-02-13T06:31:34.315Z,35.43
2023-02-13T06:34:01.818Z,35.27
2023-02-13T06:36:29.247Z,33.20
2023-02-13T06:38:56.712Z,33.93
2023-02-13T06:41:24.141Z,33.67
2023-02-13T06:43:51.783Z,32.80
2023-02-13T06:46:19.326Z,33.03
2023-02-13T06:48:46.820Z,33.33
2023-02-13T06:51:14.279Z,34.23
2023-02-13T06:53:41.745Z,32.23
2023-02-13T06:56:09.238Z,33.00
2023-02-13T06:58:36.806Z,34.13
2023-02-13T07:01:04.355Z,33.37
2023-02-13T07:03:31.911Z,33.03
2023-02-13T07:05:59.384Z,36.63
2023-02-13T07:08:26.814Z,34.40
2023-02-13T07:10:54.340Z,34.80
2023-02-13T07:13:22.168Z,33.87
2023-02-13T07:15:49.646Z,35.30
2023-02-13T07:18:17.200Z,34.23
2023-02-13T07:20:44.821Z,36.13
2023-02-13T07:23:12.399Z,37.13
2023-02-13T07:25:39.838Z,36.27
2023-02-13T07:28:07.774Z,35.93
2023-02-13T07:30:35.610Z,34.27
2023-02-13T07:33:03.936Z,35.53
2023-02-13T07:35:31.815Z,34.53
2023-02-13T07:38:00.809Z,33.40
2023-02-13T07:40:28.456Z,33.03
2023-02-13T07:42:56.307Z,35.27
2023-02-13T07:45:23.781Z,33.07
2023-02-13T07:47:51.268Z,33.00
2023-02-13T07:50:18.865Z,36.40
2023-02-13T07:52:53.595Z,34.30
2023-02-13T07:55:21.059Z,34.27
2023-02-13T07:57:48.494Z,35.27
2023-02-13T08:00:16.328Z,35.90
2023-02-13T08:02:43.847Z,33.97
2023-02-13T08:05:11.376Z,34.27
2023-02-13T08:07:38.831Z,34.47
2023-02-13T08:10:26.660Z,36.37
2023-02-13T08:12:54.795Z,34.43
2023-02-13T08:15:22.221Z,36.33
2023-02-13T08:17:49.677Z,38.30
2023-02-13T08:20:17.194Z,36.20
2023-02-13T08:22:44.637Z,36.27
2023-02-13T08:25:12.084Z,36.50
2023-02-13T08:27:39.905Z,36.20
2023-02-13T08:30:07.829Z,38.37
2023-02-13T08:32:52.853Z,40.23
2023-02-13T08:35:22.413Z,37.83
2023-02-13T08:37:49.833Z,36.70
2023-02-13T08:40:17.334Z,37.43
2023-02-13T08:42:44.772Z,40.10
2023-02-13T08:45:12.221Z,43.17
2023-02-13T08:47:40.053Z,39.67
2023-02-13T08:50:08.102Z,42.70
2023-02-13T08:52:35.704Z,38.70
2023-02-13T08:55:03.909Z,37.27
2023-02-13T08:57:31.737Z,37.87
2023-02-13T08:59:59.347Z,37.73
2023-02-13T09:02:26.868Z,37.30
2023-02-13T09:04:54.495Z,41.27
2023-02-13T09:07:21.982Z,38.83
2023-02-13T09:09:49.536Z,39.10
2023-02-13T09:12:16.961Z,41.80
2023-02-13T09:14:44.438Z,38.10
2023-02-13T09:17:12.014Z,40.13
2023-02-13T09:19:39.500Z,40.30
2023-02-13T09:22:06.967Z,40.50
2023-02-13T09:24:34.512Z,42.70
2023-02-13T09:27:01.939Z,42.30
2023-02-13T09:29:31.822Z,41.80
2023-02-13T09:31:59.488Z,39.60
2023-02-13T09:34:27.243Z,41.57
2023-02-13T09:36:55.260Z,40.33
2023-02-13T09:39:23.039Z,40.93
2023-02-13T09:41:51.457Z,41.87
2023-02-13T09:44:34.720Z,42.63
2023-02-13T09:47:10.900Z,39.43
2023-02-13T09:49:40.883Z,40.13
2023-02-13T09:52:09.652Z,41.30
2023-02-13T09:54:37.228Z,42.13
2023-02-13T09:57:28.369Z,39.73
2023-02-13T10:00:14.570Z,42.50
2023-02-13T10:03:02.481Z,42.63
2023-02-13T10:05:50.342Z,41.50
2023-02-13T10:08:40.689Z,43.53
2023-02-13T10:11:28.433Z,45.47
2023-02-13T10:14:16.160Z,45.13
2023-02-13T10:17:01.930Z,41.70
2023-02-13T10:19:42.051Z,42.77
2023-02-13T10:22:20.598Z,42.50
2023-02-13T10:24:53.564Z,42.93
2023-02-13T10:27:25.379Z,40.87
2023-02-13T10:30:07.536Z,44.00
2023-02-13T10:33:19.567Z,41.57
2023-02-13T10:35:51.353Z,43.43
2023-02-13T10:38:20.466Z,39.40
2023-02-13T10:41:17.122Z,44.97
2023-02-13T10:44:11.105Z,43.37
2023-02-13T10:46:52.442Z,49.08
2023-02-13T10:49:35.287Z,43.17
2023-02-13T10:52:26.832Z,42.17
2023-02-13T10:55:26.713Z,43.17
2023-02-13T10:58:17.582Z,42.70
2023-02-13T11:00:59.805Z,39.80
2023-02-13T11:03:28.620Z,37.63
2023-02-13T11:05:56.881Z,40.23
2023-02-13T11:08:33.541Z,43.47
2023-02-13T11:11:01.380Z,40.50
2023-02-13T11:13:30.953Z,42.77
2023-02-13T11:16:06.321Z,41.57
2023-02-13T11:18:47.144Z,40.30
2023-02-13T11:21:21.394Z,40.87
2023-02-13T11:23:57.532Z,41.30
2023-02-13T11:26:28.669Z,43.40
2023-02-13T11:29:03.749Z,38.50
2023-02-13T11:31:32.887Z,41.10
2023-02-13T11:34:01.156Z,41.97
2023-02-13T11:36:30.300Z,42.30
2023-02-13T11:39:01.877Z,42.00
2023-02-13T11:41:30.028Z,42.90
2023-02-13T11:44:01.727Z,42.77
2023-02-13T11:46:30.633Z,43.27
2023-02-13T11:48:59.318Z,42.53
2023-02-13T11:51:45.784Z,38.43
2023-02-13T11:54:28.004Z,40.40
2023-02-13T11:57:06.133Z,38.63
2023-02-13T11:59:40.053Z,39.23
2023-02-13T12:02:14.947Z,39.00
2023-02-13T12:04:42.889Z,41.37
2023-02-13T12:07:37.003Z,39.17
2023-02-13T12:10:09.484Z,40.87
2023-02-13T12:12:41.267Z,40.67
2023-02-13T12:15:28.907Z,42.00
2023-02-13T12:18:04.524Z,39.00
2023-02-13T12:20:37.843Z,42.43
2023-02-13T12:23:31.744Z,39.53
2023-02-13T12:26:06.430Z,40.23
2023-02-13T12:28:52.679Z,40.90
2023-02-13T12:31:32.024Z,41.47
2023-02-13T12:34:25.841Z,41.43
2023-02-13T12:37:12.271Z,40.20
2023-02-13T12:39:42.193Z,40.93
2023-02-13T12:42:44.982Z,40.47
2023-02-13T12:45:32.747Z,42.20
2023-02-13T12:48:22.304Z,39.43
2023-02-13T12:51:01.323Z,40.30
2023-02-13T12:53:40.516Z,36.87
2023-02-13T12:56:32.446Z,41.03
2023-02-13T13:02:31.859Z,41.13
2023-02-13T13:05:24.613Z,40.93
2023-02-13T13:16:52.803Z,37.97
2023-02-13T13:19:53.176Z,40.17
2023-02-13T13:22:33.973Z,38.60
2023-02-13T13:25:21.334Z,38.43
2023-02-13T13:27:51.162Z,40.83
2023-02-13T13:30:25.155Z,38.00
2023-02-13T13:32:57.633Z,39.87
2023-02-13T13:35:25.783Z,38.13
2023-02-13T13:38:02.802Z,37.87
2023-02-13T13:40:40.818Z,38.83
2023-02-13T13:43:20.349Z,36.97
2023-02-13T13:46:10.916Z,38.10
2023-02-13T13:48:57.168Z,36.47
2023-02-13T13:51:24.737Z,35.97
2023-02-13T13:54:18.462Z,37.10
2023-02-13T13:57:05.410Z,37.80
2023-02-13T13:59:59.209Z,36.93
2023-02-13T14:02:47.133Z,37.70
2023-02-13T14:05:35.546Z,36.83
2023-02-13T14:08:05.302Z,39.17
2023-02-13T14:10:52.968Z,38.10
2023-02-13T14:13:31.947Z,37.73
2023-02-13T14:15:59.590Z,39.63
2023-02-13T14:18:27.903Z,36.93
2023-02-13T14:21:00.994Z,39.00
2023-02-13T14:23:30.988Z,36.53
2023-02-13T14:26:21.675Z,36.80
2023-02-13T14:28:56.760Z,37.47
2023-02-13T14:31:28.756Z,39.27
2023-02-13T14:34:19.760Z,39.20
2023-02-13T14:37:05.303Z,35.33
2023-02-13T14:39:35.886Z,36.17
2023-02-13T14:42:05.091Z,35.23
2023-02-13T14:44:50.082Z,33.93
2023-02-13T14:47:31.234Z,37.50
2023-02-13T14:50:00.342Z,37.17
2023-02-13T14:52:29.853Z,37.27
2023-02-13T14:55:05.503Z,37.03
2023-02-13T14:57:39.246Z,36.30
2023-02-13T15:00:26.445Z,35.80
2023-02-13T15:02:56.217Z,36.00
2023-02-13T15:05:25.966Z,37.13
2023-02-13T15:07:59.590Z,35.10
2023-02-13T15:10:44.200Z,35.67
2023-02-13T15:13:35.131Z,34.63
2023-02-13T15:16:07.623Z,34.57
2023-02-13T15:18:43.648Z,35.20
2023-02-13T15:21:16.008Z,33.17
2023-02-13T15:23:44.010Z,34.60
2023-02-13T15:26:19.963Z,34.27
2023-02-13T15:28:58.858Z,34.60
2023-02-13T15:31:26.481Z,36.27
2023-02-13T15:33:54.075Z,32.63
2023-02-13T15:36:25.567Z,34.90
2023-02-13T15:39:00.033Z,34.43
2023-02-13T15:41:33.203Z,33.40
2023-02-13T15:44:01.138Z,35.00
2023-02-13T15:46:29.790Z,33.20
2023-02-13T15:48:59.980Z,33.07
2023-02-13T15:51:31.370Z,30.23
2023-02-13T15:54:00.231Z,32.77
2023-02-13T15:56:28.440Z,32.70
2023-02-13T15:58:56.882Z,30.70
2023-02-13T16:01:25.292Z,31.23
2023-02-13T16:04:13.212Z,33.50
2023-02-13T16:06:43.051Z,33.50
2023-02-13T16:09:24.268Z,32.97
2023-02-13T16:11:52.509Z,34.03
2023-02-13T16:14:21.188Z,33.83
2023-02-13T16:16:57.316Z,32.40
2023-02-13T16:19:35.782Z,34.60
2023-02-13T16:22:35.878Z,34.33
2023-02-13T16:25:35.470Z,33.87
2023-02-13T16:28:05.885Z,35.60
2023-02-13T16:31:05.858Z,34.57
2023-02-13T16:33:42.390Z,36.07
2023-02-13T16:36:19.989Z,34.70
2023-02-13T16:38:48.408Z,36.03
2023-02-13T16:41:33.559Z,34.27
2023-02-13T16:44:22.339Z,35.67
2023-02-13T16:47:10.043Z,34.00
2023-02-13T16:49:38.432Z,34.90
2023-02-13T16:52:17.863Z,34.77
2023-02-13T16:54:49.920Z,34.83
2023-02-13T16:57:30.223Z,37.27
2023-02-13T16:59:59.634Z,35.20
2023-02-13T17:02:30.862Z,36.70
2023-02-13T17:05:03.311Z,38.60
2023-02-13T17:07:31.813Z,36.83
2023-02-13T17:10:18.137Z,35.17
2023-02-13T17:12:46.204Z,37.37
2023-02-13T17:15:15.059Z,38.57
2023-02-13T17:17:42.730Z,38.30
2023-02-13T17:20:17.302Z,38.60
2023-02-13T17:22:45.996Z,38.47
2023-02-13T17:25:21.974Z,39.03
2023-02-13T17:27:53.901Z,39.20
2023-02-13T17:30:23.126Z,39.87
2023-02-13T17:32:51.009Z,42.27
2023-02-13T17:35:18.757Z,38.50
2023-02-13T17:37:46.198Z,39.43
2023-02-13T17:40:18.145Z,38.00
2023-02-13T17:42:46.643Z,37.97
2023-02-13T17:45:17.508Z,39.27
2023-02-13T17:47:45.087Z,39.40
2023-02-13T17:50:13.477Z,40.13
2023-02-13T17:52:41.231Z,39.57
2023-02-13T17:55:16.577Z,41.13
2023-02-13T17:57:44.194Z,40.17
2023-02-13T18:00:11.892Z,38.53
2023-02-13T18:02:45.417Z,41.13
2023-02-13T18:05:12.869Z,40.50
2023-02-13T18:07:41.593Z,37.07
2023-02-13T18:10:12.098Z,42.00
2023-02-13T18:12:40.578Z,40.63
2023-02-13T18:15:08.258Z,40.53
2023-02-13T18:17:35.816Z,41.73
2023-02-13T18:20:03.293Z,40.57
2023-02-13T18:22:30.776Z,41.23
2023-02-13T18:24:58.259Z,45.00
2023-02-13T18:27:27.097Z,43.63
2023-02-13T18:29:57.692Z,41.83
2023-02-13T18:32:25.534Z,44.37
2023-02-13T18:34:52.937Z,41.17
2023-02-13T18:37:20.447Z,42.03
2023-02-13T18:39:47.900Z,41.87
2023-02-13T18:42:15.618Z,44.73
2023-02-13T18:44:43.028Z,44.07
2023-02-13T18:47:10.621Z,46.33
2023-02-13T18:49:38.059Z,45.27
2023-02-13T18:52:06.033Z,43.23
2023-02-13T18:54:33.497Z,43.30
2023-02-13T18:57:01.089Z,43.13
2023-02-13T18:59:28.617Z,42.93
2023-02-13T19:01:56.543Z,42.77
2023-02-13T19:04:23.969Z,45.13
2023-02-13T19:06:51.985Z,44.63
2023-02-13T19:09:19.469Z,46.00
2023-02-13T19:11:48.600Z,42.23
2023-02-13T19:14:16.864Z,42.93
2023-02-13T19:16:44.523Z,42.83
2023-02-13T19:19:11.986Z,42.40
2023-02-13T19:21:39.983Z,42.73
2023-02-13T19:24:09.416Z,43.07
2023-02-13T19:26:37.405Z,42.07
2023-02-13T19:29:04.924Z,45.00
2023-02-13T19:31:33.618Z,46.00
2023-02-13T19:34:01.187Z,45.37
2023-02-13T19:36:30.104Z,46.07
2023-02-13T19:38:58.582Z,47.60
2023-02-13T19:41:26.404Z,46.23
2023-02-13T19:43:53.926Z,45.60
2023-02-13T19:46:23.125Z,43.70
2023-02-13T19:48:51.026Z,43.00
2023-02-13T19:51:19.651Z,38.83
2023-02-13T19:53:47.667Z,43.40
2023-02-13T19:56:15.614Z,42.40
2023-02-13T19:58:43.409Z,45.73
2023-02-13T20:01:12.182Z,44.83
2023-02-13T20:03:39.769Z,44.03
2023-02-13T20:06:09.045Z,44.63
2023-02-13T20:08:36.495Z,48.03
2023-02-13T20:11:04.095Z,43.57
2023-02-13T20:13:32.144Z,45.00
2023-02-13T20:15:59.775Z,40.63
2023-02-13T20:18:27.429Z,41.77
2023-02-13T20:20:55.071Z,44.20
2023-02-13T20:23:22.688Z,44.17
2023-02-13T20:25:50.194Z,41.83
2023-02-13T20:28:17.641Z,41.07
2023-02-13T20:30:45.266Z,41.50
2023-02-13T20:33:12.764Z,40.93
2023-02-13T20:35:40.346Z,43.27
2023-02-13T20:38:07.836Z,41.10
2023-02-13T20:40:35.329Z,42.10
2023-02-13T20:43:02.790Z,41.07
2023-02-13T20:45:30.359Z,43.57
2023-02-13T20:47:57.838Z,46.27
2023-02-13T20:50:25.354Z,44.00
2023-02-13T20:52:52.852Z,46.73
2023-02-13T20:55:20.419Z,45.80
2023-02-13T20:57:47.851Z,44.43
2023-02-13T21:00:15.785Z,41.60
2023-02-13T21:02:43.288Z,42.97
2023-02-13T21:05:10.800Z,42.60
2023-02-13T21:07:38.592Z,50.43
2023-02-13T21:10:06.889Z,47.07
2023-02-13T21:12:35.038Z,45.87
2023-02-13T21:15:02.594Z,48.03
2023-02-13T21:17:30.053Z,45.83
2023-02-13T21:19:57.568Z,47.73
2023-02-13T21:22:25.238Z,49.17
2023-02-13T21:24:52.845Z,45.40
2023-02-13T21:27:20.467Z,47.27
2023-02-13T21:29:48.165Z,45.87
2023-02-13T21:32:15.716Z,50.60
2023-02-13T21:34:43.393Z,44.27
2023-02-13T21:37:10.890Z,43.47
2023-02-13T21:39:38.966Z,43.37
2023-02-13T21:42:06.556Z,48.73
2023-02-13T21:44:34.103Z,45.63
2023-02-13T21:47:01.600Z,43.67
2023-02-13T21:49:29.280Z,41.70
2023-02-13T21:51:56.781Z,46.03
2023-02-13T21:54:24.372Z,45.97
2023-02-13T21:56:52.086Z,43.50
2023-02-13T21:59:19.719Z,45.20
2023-02-13T22:01:48.104Z,43.33
2023-02-13T22:04:15.642Z,45.07
2023-02-13T22:06:43.369Z,47.13
2023-02-13T22:09:12.196Z,42.80
2023-02-13T22:11:40.024Z,45.17
2023-02-13T22:14:08.453Z,45.40
2023-02-13T22:16:37.105Z,49.93
2023-02-13T22:19:05.095Z,47.03
2023-02-13T22:21:33.307Z,48.23
2023-02-13T22:24:01.221Z,47.57
2023-02-13T22:26:29.847Z,46.70
2023-02-13T22:28:59.902Z,42.07
2023-02-13T22:31:27.566Z,46.07
2023-02-13T22:34:03.540Z,50.60
2023-02-13T22:36:32.601Z,49.43
2023-02-13T22:39:00.098Z,46.77
2023-02-13T22:41:27.998Z,47.90
2023-02-13T22:43:55.636Z,46.27
2023-02-13T22:46:33.510Z,49.23
2023-02-13T22:49:01.205Z,48.90
2023-02-13T22:51:30.836Z,48.23
2023-02-13T22:53:58.826Z,47.27
2023-02-13T22:56:26.838Z,46.40
2023-02-13T22:58:54.314Z,51.07
2023-02-13T23:01:22.844Z,50.67
2023-02-13T23:03:50.361Z,54.13
2023-02-13T23:06:18.672Z,46.23
2023-02-13T23:08:49.076Z,50.50
2023-02-13T23:11:36.580Z,44.50
2023-02-13T23:14:04.488Z,48.53
2023-02-13T23:16:51.897Z,49.13
2023-02-13T23:19:19.491Z,53.43
2023-02-13T23:21:46.903Z,52.10
2023-02-13T23:24:14.433Z,49.93
2023-02-13T23:26:41.877Z,50.33
2023-02-13T23:29:09.736Z,46.03
2023-02-13T23:31:37.326Z,43.03
2023-02-13T23:34:05.070Z,52.73
2023-02-13T23:36:32.502Z,47.40
2023-02-13T23:38:59.972Z,60.57
2023-02-13T23:41:27.361Z,60.23
2023-02-13T23:43:54.911Z,56.20
2023-02-13T23:46:22.450Z,46.50
2023-02-13T23:48:49.931Z,50.73
2023-02-13T23:51:18.438Z,45.60
2023-02-13T23:53:46.249Z,52.33
2023-02-13T23:56:13.724Z,57.57
2023-02-13T23:58:41.172Z,49.10
